Terminal Aerodrome Forecast
Issued by NWS

Home | Current Version | Previous Version | Text Only | Print | Product List | Glossary On
Versions: 1 2 3 4 5 6 7 8 9 10 11 12 13 14 15 16 17
000
FTUS41 KBOX 241121
TAFFMH
TAF
KFMH 241121Z 2412/2512 22005KT P6SM FEW250
     FM242100 16006KT P6SM SCT250
     FM250000 13005KT P6SM BKN080
     FM250400 10006KT P6SM BKN040
     FM250800 08008KT P6SM VCSH OVC025=

USA.gov is the U.S. government's official web portal to all federal, state and local government web resources and services.